createdAt,value
2023-02-28T00:00:58.883Z,101709.48
2023-02-28T00:03:04.359Z,101711.51
2023-02-28T00:05:10.229Z,101716.3
2023-02-28T00:07:15.873Z,101713.79
2023-02-28T00:09:21.296Z,101721.14
2023-02-28T00:11:26.670Z,101723.52
2023-02-28T00:13:34.778Z,101724.24
2023-02-28T00:15:40.204Z,101722.05
2023-02-28T00:17:45.434Z,101719.16
2023-02-28T00:19:50.539Z,101721.42
2023-02-28T00:21:55.875Z,101721.65
2023-02-28T00:24:01.283Z,101722.23
2023-02-28T00:26:06.660Z,101722.03
2023-02-28T00:28:12.118Z,101726.03
2023-02-28T00:30:17.328Z,101727.2
2023-02-28T00:32:22.945Z,101730.53
2023-02-28T00:34:28.434Z,101728.9
2023-02-28T00:36:34.918Z,101731.45
2023-02-28T00:38:40.676Z,101729.64
2023-02-28T00:40:46.364Z,101729.27
2023-02-28T00:42:51.563Z,101728.62
2023-02-28T00:44:56.898Z,101730.48
2023-02-28T00:47:02.077Z,101732.05
2023-02-28T00:49:07.386Z,101732.56
2023-02-28T00:51:12.713Z,101731.72
2023-02-28T00:53:18.377Z,101727.19
2023-02-28T00:55:23.736Z,101727.41
2023-02-28T00:57:29.050Z,101726.86
2023-02-28T00:59:34.415Z,101731.95
2023-02-28T01:01:39.863Z,101730.23
2023-02-28T01:03:45.731Z,101726.87
2023-02-28T01:05:51.001Z,101729.42
2023-02-28T01:07:56.558Z,101731.03
2023-02-28T01:10:01.891Z,101725.36
2023-02-28T01:12:07.391Z,101729.14
2023-02-28T01:14:15.648Z,101727.45
2023-02-28T01:16:21.197Z,101731.17
2023-02-28T01:18:26.605Z,101722.08
2023-02-28T01:20:31.882Z,101732.66
2023-02-28T01:22:37.294Z,101732.48
2023-02-28T01:24:42.543Z,101733.95
2023-02-28T01:26:47.680Z,101728.88
2023-02-28T01:28:52.921Z,101731.85
2023-02-28T01:30:58.264Z,101730.6
2023-02-28T01:33:03.503Z,101733.98
2023-02-28T01:35:08.690Z,101734.52
2023-02-28T01:37:13.984Z,101735.23
2023-02-28T01:39:19.423Z,101730.91
2023-02-28T01:41:25.915Z,101731.44
2023-02-28T01:43:32.468Z,101730.95
2023-02-28T01:45:37.792Z,101733.34
2023-02-28T01:47:43.124Z,101736.47
2023-02-28T01:49:48.476Z,101738.96
2023-02-28T01:51:53.730Z,101742.08
2023-02-28T01:53:59.134Z,101739.38
2023-02-28T01:56:04.516Z,101741.33
2023-02-28T01:58:09.788Z,101742.53
2023-02-28T02:00:15.099Z,101744.41
2023-02-28T02:02:20.446Z,101743.35
2023-02-28T02:04:25.836Z,101744.77
2023-02-28T02:06:31.146Z,101740.48
2023-02-28T02:08:36.488Z,101739.69
2023-02-28T02:10:41.615Z,101743.52
2023-02-28T02:12:47.042Z,101739.04
2023-02-28T02:14:52.290Z,101741.63
2023-02-28T02:16:57.657Z,101733.06
2023-02-28T02:19:03.018Z,101729.5
2023-02-28T02:21:08.364Z,101731.08
2023-02-28T02:23:13.677Z,101735.84
2023-02-28T02:25:18.896Z,101736.4
2023-02-28T02:27:24.181Z,101733.91
2023-02-28T02:29:29.428Z,101733.35
2023-02-28T02:31:34.706Z,101738.41
2023-02-28T02:33:41.386Z,101739.28
2023-02-28T02:35:46.841Z,101737.31
2023-02-28T02:37:52.184Z,101736.78
2023-02-28T02:39:58.092Z,101740.38
2023-02-28T02:42:03.280Z,101738.35
2023-02-28T02:44:08.627Z,101741.15
2023-02-28T02:46:13.904Z,101745.45
2023-02-28T02:48:19.130Z,101743.31
2023-02-28T02:50:24.377Z,101747.09
2023-02-28T02:52:29.810Z,101751.52
2023-02-28T02:54:34.996Z,101753.42
2023-02-28T02:56:40.494Z,101757.24
2023-02-28T02:58:46.100Z,101756.75
2023-02-28T03:00:51.340Z,101753.86
2023-02-28T03:02:56.820Z,101757.44
2023-02-28T03:05:02.014Z,101756.8
2023-02-28T03:07:07.328Z,101754.52
2023-02-28T03:09:12.659Z,101759.24
2023-02-28T03:11:18.009Z,101757.5
2023-02-28T03:13:23.370Z,101754.63
2023-02-28T03:15:28.655Z,101761.13
2023-02-28T03:17:33.948Z,101761.3
2023-02-28T03:19:39.210Z,101764.75
2023-02-28T03:21:44.530Z,101766.76
2023-02-28T03:23:50.043Z,101765.86
2023-02-28T03:25:55.677Z,101766.48
2023-02-28T03:28:00.974Z,101763.02
2023-02-28T03:30:06.384Z,101765.09
2023-02-28T03:32:11.783Z,101768.16
2023-02-28T03:34:17.192Z,101766.83
2023-02-28T03:36:22.692Z,101771.2
2023-02-28T03:38:28.132Z,101770.08
2023-02-28T03:40:33.453Z,101771.48
2023-02-28T03:42:39.008Z,101768.58
2023-02-28T03:44:44.303Z,101768.7
2023-02-28T03:46:49.968Z,101773.8
2023-02-28T03:48:55.300Z,101772.55
2023-02-28T03:51:00.824Z,101778.16
2023-02-28T03:53:06.353Z,101776.2
2023-02-28T03:55:11.387Z,101773.27
2023-02-28T03:57:16.664Z,101773.53
2023-02-28T03:59:22.174Z,101778.52
2023-02-28T04:01:28.700Z,101780.11
2023-02-28T04:03:35.643Z,101778.44
2023-02-28T04:05:41.118Z,101774.73
2023-02-28T04:07:46.443Z,101779.77
2023-02-28T04:09:51.729Z,101777.36
2023-02-28T04:11:56.965Z,101779.72
2023-02-28T04:14:02.330Z,101777.95
2023-02-28T04:16:07.827Z,101779.89
2023-02-28T04:18:13.376Z,101781.2
2023-02-28T04:20:18.625Z,101777.86
2023-02-28T04:22:23.758Z,101778.52
2023-02-28T04:24:28.937Z,101774.16
2023-02-28T04:26:34.686Z,101778.22
2023-02-28T04:28:39.991Z,101780.84
2023-02-28T04:30:45.428Z,101778.89
2023-02-28T04:32:50.954Z,101782.16
2023-02-28T04:34:56.569Z,101781.31
2023-02-28T04:37:14.376Z,101781.09
2023-02-28T04:39:20.455Z,101777.27
2023-02-28T04:41:26.085Z,101782.83
2023-02-28T04:43:36.423Z,101782.6
2023-02-28T04:45:41.721Z,101782.13
2023-02-28T04:47:47.360Z,101786.41
2023-02-28T04:49:52.811Z,101782.63
2023-02-28T04:51:58.214Z,101784.66
2023-02-28T04:54:03.387Z,101787.18
2023-02-28T04:56:08.776Z,101792.13
2023-02-28T04:58:14.211Z,101791.72
2023-02-28T05:00:19.532Z,101795.9
2023-02-28T05:02:25.638Z,101795.27
2023-02-28T05:04:31.037Z,101800.37
2023-02-28T05:06:36.425Z,101798.52
2023-02-28T05:08:41.792Z,101797.45
2023-02-28T05:10:47.217Z,101794.75
2023-02-28T05:12:52.712Z,101798.45
2023-02-28T05:14:58.125Z,101798.62
2023-02-28T05:17:03.628Z,101797.65
2023-02-28T05:19:09.206Z,101800.31
2023-02-28T05:21:14.940Z,101802.87
2023-02-28T05:23:20.289Z,101804.16
2023-02-28T05:25:25.515Z,101804.78
2023-02-28T05:27:31.148Z,101810.02
2023-02-28T05:29:36.658Z,101806.48
2023-02-28T05:31:42.070Z,101805.58
2023-02-28T05:33:47.595Z,101807.66
2023-02-28T05:35:53.342Z,101811.89
2023-02-28T05:37:58.813Z,101813.39
2023-02-28T05:40:04.227Z,101815.45
2023-02-28T05:42:09.912Z,101816.03
2023-02-28T05:44:15.370Z,101820.33
2023-02-28T05:46:20.643Z,101824.42
2023-02-28T05:48:26.228Z,101819.84
2023-02-28T05:50:31.963Z,101821.33
2023-02-28T05:52:37.297Z,101819.05
2023-02-28T05:54:42.543Z,101824.8
2023-02-28T05:56:48.088Z,101823.69
2023-02-28T05:58:53.596Z,101828.45
2023-02-28T06:00:59.145Z,101830.8
2023-02-28T06:03:05.091Z,101830.45
2023-02-28T06:05:10.759Z,101831.02
2023-02-28T06:07:16.198Z,101839.37
2023-02-28T06:09:21.467Z,101839.22
2023-02-28T06:11:27.868Z,101835.04
2023-02-28T06:13:35.364Z,101839.41
2023-02-28T06:15:40.784Z,101837.4
2023-02-28T06:17:46.542Z,101840.64
2023-02-28T06:19:52.089Z,101833.86
2023-02-28T06:21:57.381Z,101835.61
2023-02-28T06:24:03.230Z,101839.44
2023-02-28T06:26:08.771Z,101838.36
2023-02-28T06:28:14.223Z,101836.67
2023-02-28T06:30:19.492Z,101841.09
2023-02-28T06:32:25.118Z,101840.58
2023-02-28T06:34:30.773Z,101844.52
2023-02-28T06:36:36.488Z,101841.77
2023-02-28T06:38:41.833Z,101841.7
2023-02-28T06:40:47.525Z,101852.09
2023-02-28T06:42:52.963Z,101846.73
2023-02-28T06:44:58.909Z,101846.84
2023-02-28T06:47:05.718Z,101847.2
2023-02-28T06:49:11.765Z,101850.5
2023-02-28T06:51:17.342Z,101852.98
2023-02-28T06:53:22.790Z,101852.22
2023-02-28T06:55:30.783Z,101843.77
2023-02-28T06:57:36.562Z,101844.94
2023-02-28T06:59:42.228Z,101844.69
2023-02-28T07:01:47.698Z,101844.28
2023-02-28T07:03:53.504Z,101836.8
2023-02-28T07:05:59.027Z,101841.53
2023-02-28T07:08:04.533Z,101844.06
2023-02-28T07:10:10.068Z,101845.02
2023-02-28T07:12:15.685Z,101844.92
2023-02-28T07:14:21.072Z,101845.19
2023-02-28T07:16:26.831Z,101843.91
2023-02-28T07:18:35.495Z,101841.47
2023-02-28T07:20:41.370Z,101839.52
2023-02-28T07:22:46.719Z,101831.87
2023-02-28T07:24:52.220Z,101832.16
2023-02-28T07:26:57.922Z,101837.03
2023-02-28T07:29:03.443Z,101830.3
2023-02-28T07:31:09.555Z,101832.42
2023-02-28T07:33:15.215Z,101831.78
2023-02-28T07:35:20.634Z,101835.09
2023-02-28T07:37:26.093Z,101836.74
2023-02-28T07:39:31.516Z,101831.33
2023-02-28T07:41:37.163Z,101834.72
2023-02-28T07:43:42.374Z,101831.28
2023-02-28T07:45:47.793Z,101825.67
2023-02-28T07:47:52.950Z,101828.77
2023-02-28T07:49:58.362Z,101827.02
2023-02-28T07:52:03.623Z,101822.42
2023-02-28T07:54:08.881Z,101825.36
2023-02-28T07:56:15.278Z,101825.23
2023-02-28T07:58:20.827Z,101825.8
2023-02-28T08:00:26.499Z,101826.07
2023-02-28T08:02:32.372Z,101827.96
2023-02-28T08:04:37.932Z,101827.5
2023-02-28T08:06:43.347Z,101826.37
2023-02-28T08:08:48.729Z,101824.05
2023-02-28T08:10:56.420Z,101821.3
2023-02-28T08:13:03.151Z,101824.2
2023-02-28T08:15:08.446Z,101820
2023-02-28T08:17:13.859Z,101818.2
2023-02-28T08:19:19.140Z,101822.08
2023-02-28T08:21:24.271Z,101819.65
2023-02-28T08:23:29.799Z,101817.34
2023-02-28T08:25:35.570Z,101816.53
2023-02-28T08:27:41.025Z,101813.25
2023-02-28T08:29:46.598Z,101812.25
2023-02-28T08:31:52.310Z,101811.05
2023-02-28T08:33:58.023Z,101811.64
2023-02-28T08:36:03.716Z,101804.93
2023-02-28T08:38:09.369Z,101802.43
2023-02-28T08:40:14.738Z,101810.32
2023-02-28T08:42:19.801Z,101806.15
2023-02-28T08:44:25.140Z,101805.62
2023-02-28T08:46:30.421Z,101802.37
2023-02-28T08:48:35.927Z,101803.79
2023-02-28T08:50:41.134Z,101806.27
2023-02-28T08:52:56.016Z,101805.8
2023-02-28T08:55:01.432Z,101804.95
2023-02-28T08:57:06.767Z,101799.86
2023-02-28T08:59:11.995Z,101800.31
2023-02-28T09:01:17.741Z,101798.86
2023-02-28T09:03:25.589Z,101802.77
2023-02-28T09:05:30.932Z,101799.81
2023-02-28T09:07:36.515Z,101801.58
2023-02-28T09:09:43.177Z,101796.96
2023-02-28T09:11:48.854Z,101801.79
2023-02-28T09:13:54.463Z,101811.12
2023-02-28T09:15:59.765Z,101808.39
2023-02-28T09:18:04.931Z,101808.82
2023-02-28T09:20:10.270Z,101810.75
2023-02-28T09:22:15.661Z,101809.53
2023-02-28T09:24:20.891Z,101812.23
2023-02-28T09:26:26.337Z,101815.38
2023-02-28T09:28:46.788Z,101813.6
2023-02-28T09:30:52.186Z,101813.13
2023-02-28T09:32:58.287Z,101817.42
2023-02-28T09:35:03.551Z,101808.98
2023-02-28T09:37:08.898Z,101805
2023-02-28T09:39:14.149Z,101804.64
2023-02-28T09:41:19.569Z,101807.88
2023-02-28T09:43:24.799Z,101810.05
2023-02-28T09:45:29.952Z,101809.81
2023-02-28T09:47:35.196Z,101811.5
2023-02-28T09:49:40.852Z,101810.78
2023-02-28T09:51:46.213Z,101813.23
2023-02-28T09:54:01.790Z,101811.11
2023-02-28T09:56:07.574Z,101801.53
2023-02-28T09:58:12.681Z,101804.47
2023-02-28T10:00:19.590Z,101800.16
2023-02-28T10:02:24.935Z,101805.39
2023-02-28T10:04:30.143Z,101803.52
2023-02-28T10:06:35.666Z,101805.48
2023-02-28T10:08:41.098Z,101810.86
2023-02-28T10:10:46.362Z,101808.7
2023-02-28T10:12:51.947Z,101810.6
2023-02-28T10:14:57.137Z,101807.2
2023-02-28T10:17:02.556Z,101804.73
2023-02-28T10:19:07.609Z,101812.92
2023-02-28T10:21:14.554Z,101804.69
2023-02-28T10:23:20.037Z,101803.42
2023-02-28T10:25:25.516Z,101804.27
2023-02-28T10:27:30.724Z,101808.16
2023-02-28T10:29:36.005Z,101804.8
2023-02-28T10:31:41.657Z,101801.36
2023-02-28T10:33:47.102Z,101802.96
2023-02-28T10:35:52.526Z,101803.39
2023-02-28T10:37:58.083Z,101798.92
2023-02-28T10:40:03.379Z,101793.41
2023-02-28T10:42:08.816Z,101793.36
2023-02-28T10:44:14.417Z,101787.73
2023-02-28T10:46:20.289Z,101791.8
2023-02-28T10:48:25.834Z,101792.25
2023-02-28T10:50:31.310Z,101802.2
2023-02-28T10:52:36.744Z,101799.93
2023-02-28T10:54:42.178Z,101794.02
2023-02-28T10:56:47.393Z,101793.63
2023-02-28T10:58:52.752Z,101796.94
2023-02-28T11:00:57.975Z,101796.94
2023-02-28T11:03:03.342Z,101798.61
2023-02-28T11:05:08.889Z,101791.88
2023-02-28T11:07:14.965Z,101787.45
2023-02-28T11:09:21.386Z,101791.51
2023-02-28T11:11:29.924Z,101785.86
2023-02-28T11:13:36.367Z,101783.58
2023-02-28T11:15:41.826Z,101779.3
2023-02-28T11:17:47.255Z,101781.41
2023-02-28T11:19:52.589Z,101771.59
2023-02-28T11:21:57.954Z,101766.43
2023-02-28T11:24:03.538Z,101765.53
2023-02-28T11:26:08.607Z,101764.69
2023-02-28T11:28:14.298Z,101762.63
2023-02-28T11:30:19.790Z,101759.89
2023-02-28T11:32:25.670Z,101753.56
2023-02-28T11:34:31.716Z,101749.8
2023-02-28T11:36:37.291Z,101746.95
2023-02-28T11:38:42.685Z,101742.97
2023-02-28T11:40:48.168Z,101748.57
2023-02-28T11:42:53.438Z,101743.19
2023-02-28T11:44:58.757Z,101740.36
2023-02-28T11:47:04.013Z,101737.45
2023-02-28T11:49:09.313Z,101732.67
2023-02-28T11:51:14.768Z,101729.13
2023-02-28T11:53:20.216Z,101730.25
2023-02-28T11:55:25.710Z,101722.6
2023-02-28T11:57:31.052Z,101721.05
2023-02-28T11:59:36.463Z,101720.83
2023-02-28T12:01:41.827Z,101716.48
2023-02-28T12:03:47.021Z,101713.59
2023-02-28T12:05:52.330Z,101714.73
2023-02-28T12:07:58.801Z,101709.93
2023-02-28T12:10:04.032Z,101702.5
2023-02-28T12:12:09.234Z,101698.92
2023-02-28T12:14:14.635Z,101698.23
2023-02-28T12:16:19.926Z,101690.64
2023-02-28T12:18:25.250Z,101694.62
2023-02-28T12:20:30.965Z,101693.38
2023-02-28T12:22:36.081Z,101690.41
2023-02-28T12:24:41.404Z,101692.36
2023-02-28T12:26:46.912Z,101686.56
2023-02-28T12:28:53.448Z,101686.08
2023-02-28T12:30:59.103Z,101688.21
2023-02-28T12:33:04.796Z,101687.75
2023-02-28T12:35:10.282Z,101683.52
2023-02-28T12:37:15.959Z,101678.95
2023-02-28T12:39:24.177Z,101673.48
2023-02-28T12:41:30.313Z,101673.45
2023-02-28T12:43:35.950Z,101673.34
2023-02-28T12:45:41.682Z,101675.53
2023-02-28T12:47:47.448Z,101664.95
2023-02-28T12:49:52.991Z,101670.84
2023-02-28T12:51:59.032Z,101668.27
2023-02-28T12:54:04.827Z,101662.84
2023-02-28T12:56:10.060Z,101666.2
2023-02-28T12:58:15.314Z,101664.89
2023-02-28T13:00:20.776Z,101661.7
2023-02-28T13:02:26.263Z,101660.7
2023-02-28T13:04:31.633Z,101652.59
2023-02-28T13:06:36.671Z,101655.55
2023-02-28T13:08:41.871Z,101655.23
2023-02-28T13:10:47.384Z,101656.48
2023-02-28T13:12:52.947Z,101657.7
2023-02-28T13:14:58.794Z,101656.54
2023-02-28T13:17:05.173Z,101660.33
2023-02-28T13:19:13.823Z,101655.27
2023-02-28T13:21:19.055Z,101657.78
2023-02-28T13:23:24.480Z,101652.94
2023-02-28T13:25:29.610Z,101652.85
2023-02-28T13:27:35.007Z,101652.83
2023-02-28T13:29:40.254Z,101651.8
2023-02-28T13:31:45.705Z,101649.51
2023-02-28T13:33:51.986Z,101650.19
2023-02-28T13:35:57.399Z,101649.63
2023-02-28T13:38:03.094Z,101648.7
2023-02-28T13:40:08.452Z,101647.34
2023-02-28T13:42:14.088Z,101646.03
2023-02-28T13:44:19.544Z,101647.06
2023-02-28T13:46:25.525Z,101643.56
2023-02-28T13:48:31.177Z,101642.97
2023-02-28T13:50:37.915Z,101639.14
2023-02-28T13:52:43.481Z,101636.22
2023-02-28T13:54:53.368Z,101633.28
2023-02-28T13:56:58.802Z,101629.12
2023-02-28T13:59:04.404Z,101620.43
2023-02-28T14:01:09.882Z,101620.13
2023-02-28T14:03:16.502Z,101619.17
2023-02-28T14:05:22.414Z,101609.17
2023-02-28T14:07:28.125Z,101608.48
2023-02-28T14:09:39.448Z,101601.6
2023-02-28T14:11:44.870Z,101603.41
2023-02-28T14:13:51.143Z,101604.69
2023-02-28T14:15:57.168Z,101600.35
2023-02-28T14:18:02.604Z,101600.85
2023-02-28T14:20:08.179Z,101596.75
2023-02-28T14:22:13.380Z,101594.59
2023-02-28T14:24:18.778Z,101591.87
2023-02-28T14:26:23.951Z,101589.36
2023-02-28T14:28:29.242Z,101587.02
2023-02-28T14:30:35.692Z,101587.11
2023-02-28T14:32:40.680Z,101586.39
2023-02-28T14:34:46.120Z,101582.7
2023-02-28T14:36:51.900Z,101583.72
2023-02-28T14:38:57.887Z,101584.5
2023-02-28T14:41:04.063Z,101580.13
2023-02-28T14:43:10.078Z,101582.16
2023-02-28T14:45:15.561Z,101580.05
2023-02-28T14:47:21.162Z,101577.73
2023-02-28T14:49:26.727Z,101577.57
2023-02-28T14:51:32.976Z,101580.56
2023-02-28T14:53:38.931Z,101580.75
2023-02-28T14:55:44.088Z,101577.8
2023-02-28T14:57:49.814Z,101579.85
2023-02-28T14:59:55.636Z,101578.43
2023-02-28T15:02:01.556Z,101577.23
2023-02-28T15:04:07.225Z,101579.13
2023-02-28T15:06:12.970Z,101572.39
2023-02-28T15:08:18.544Z,101575.83
2023-02-28T15:10:24.411Z,101580.78
2023-02-28T15:12:30.429Z,101578.84
2023-02-28T15:14:35.846Z,101577.3
2023-02-28T15:16:41.426Z,101581.73
2023-02-28T15:18:47.028Z,101579.7
2023-02-28T15:20:52.871Z,101576.75
2023-02-28T15:22:58.718Z,101573.36
2023-02-28T15:25:04.553Z,101574.28
2023-02-28T15:27:10.620Z,101571.11
2023-02-28T15:29:16.741Z,101577.61
2023-02-28T15:31:23.355Z,101573.83
2023-02-28T15:33:29.214Z,101576.83
2023-02-28T15:35:36.708Z,101571.89
2023-02-28T15:37:43.298Z,101571.77
2023-02-28T15:39:49.571Z,101571.95
2023-02-28T15:41:56.110Z,101573.38
2023-02-28T15:44:02.539Z,101570.42
2023-02-28T15:46:09.146Z,101576.86
2023-02-28T15:48:16.049Z,101573.45
2023-02-28T15:50:23.131Z,101576.5
2023-02-28T15:52:29.698Z,101577.45
2023-02-28T15:54:36.070Z,101576.12
2023-02-28T15:56:42.426Z,101580.23
2023-02-28T15:58:48.571Z,101583.45
2023-02-28T16:00:54.793Z,101589.88
2023-02-28T16:03:01.639Z,101589.07
2023-02-28T16:05:09.166Z,101591.77
2023-02-28T16:07:15.512Z,101592.28
2023-02-28T16:09:21.930Z,101592.28
2023-02-28T16:11:29.704Z,101593.2
2023-02-28T16:13:36.781Z,101590.55
2023-02-28T16:15:43.077Z,101589.2
2023-02-28T16:17:50.057Z,101594.88
2023-02-28T16:19:56.364Z,101595.52
2023-02-28T16:22:02.766Z,101601.13
2023-02-28T16:24:09.810Z,101598.65
2023-02-28T16:26:16.298Z,101603.66
2023-02-28T16:28:23.341Z,101604.92
2023-02-28T16:30:30.131Z,101607.49
2023-02-28T16:32:37.052Z,101610.65
2023-02-28T16:34:44.388Z,101610.39
2023-02-28T16:36:53.186Z,101609.95
2023-02-28T16:39:00.931Z,101609.02
2023-02-28T16:41:07.681Z,101609.92
2023-02-28T16:43:14.234Z,101606.85
2023-02-28T16:45:21.969Z,101608.06
2023-02-28T16:47:29.152Z,101606.78
2023-02-28T16:49:35.274Z,101609.55
2023-02-28T16:51:42.564Z,101612.86
2023-02-28T16:53:48.899Z,101608.66
2023-02-28T16:55:55.988Z,101621.05
2023-02-28T16:58:06.584Z,101627.45
2023-02-28T17:00:13.596Z,101628.2
2023-02-28T17:02:21.182Z,101623.44
2023-02-28T17:04:29.063Z,101620.33
2023-02-28T17:06:35.489Z,101617.38
2023-02-28T17:08:42.382Z,101618.09
2023-02-28T17:10:49.727Z,101620
2023-02-28T17:13:09.521Z,101617.03
2023-02-28T17:15:21.489Z,101609.31
2023-02-28T17:17:29.207Z,101607.06
2023-02-28T17:19:35.995Z,101608.58
2023-02-28T17:21:43.855Z,101605.86
2023-02-28T17:23:50.898Z,101610.66
2023-02-28T17:25:59.913Z,101612.17
2023-02-28T17:28:11.679Z,101619
2023-02-28T17:30:19.252Z,101618.39
2023-02-28T17:32:26.615Z,101623.24
2023-02-28T17:34:34.462Z,101629.39
2023-02-28T17:36:42.762Z,101633.38
2023-02-28T17:38:50.143Z,101632.31
2023-02-28T17:40:56.989Z,101634.04
2023-02-28T17:43:07.018Z,101636.03
2023-02-28T17:45:15.369Z,101637.78
2023-02-28T17:47:27.823Z,101635.81
2023-02-28T17:49:35.373Z,101641.07
2023-02-28T17:51:42.975Z,101639.92
2023-02-28T17:53:52.344Z,101636.38
2023-02-28T17:56:02.125Z,101640.8
2023-02-28T17:58:09.015Z,101641.67
2023-02-28T18:00:16.616Z,101642.71
2023-02-28T18:02:26.558Z,101638.46
2023-02-28T18:04:34.087Z,101636.73
2023-02-28T18:06:41.336Z,101638.64
2023-02-28T18:08:51.021Z,101635.35
2023-02-28T18:10:59.084Z,101638.97
2023-02-28T18:13:11.028Z,101641.23
2023-02-28T18:15:18.787Z,101635.31
2023-02-28T18:17:27.773Z,101639.26
2023-02-28T18:19:35.647Z,101630.67
2023-02-28T18:21:43.941Z,101624.84
2023-02-28T18:23:51.131Z,101626.17
2023-02-28T18:26:00.137Z,101626.31
2023-02-28T18:28:08.938Z,101620.47
2023-02-28T18:30:17.653Z,101618.63
2023-02-28T18:32:26.683Z,101610.73
2023-02-28T18:34:36.740Z,101614.23
2023-02-28T18:36:45.025Z,101617.57
2023-02-28T18:38:54.188Z,101618.65
2023-02-28T18:41:07.688Z,101620.46
2023-02-28T18:43:16.958Z,101617.2
2023-02-28T18:45:25.310Z,101610.22
2023-02-28T18:47:33.830Z,101609.16
2023-02-28T18:49:44.463Z,101609.8
2023-02-28T18:51:53.836Z,101609.83
2023-02-28T18:54:02.629Z,101617.39
2023-02-28T18:56:11.813Z,101612.48
2023-02-28T18:58:23.260Z,101612.81
2023-02-28T19:00:34.065Z,101612.71
2023-02-28T19:02:47.261Z,101607.22
2023-02-28T19:05:02.971Z,101597.75
2023-02-28T19:07:15.288Z,101595.81
2023-02-28T19:09:23.381Z,101587.03
2023-02-28T19:11:35.058Z,101587.99
2023-02-28T19:13:46.123Z,101587.73
2023-02-28T19:16:00.463Z,101583.25
2023-02-28T19:18:11.097Z,101585.64
2023-02-28T19:20:26.780Z,101583.67
2023-02-28T19:22:37.095Z,101581.89
2023-02-28T19:24:47.219Z,101578.38
2023-02-28T19:26:58.787Z,101582.38
2023-02-28T19:29:07.380Z,101582.77
2023-02-28T19:31:21.986Z,101587.25
2023-02-28T19:33:30.962Z,101596.69
2023-02-28T19:35:41.710Z,101599.78
2023-02-28T19:37:49.611Z,101600.78
2023-02-28T19:40:03.897Z,101600.14
2023-02-28T19:42:14.253Z,101598.27
2023-02-28T19:44:23.603Z,101603.72
2023-02-28T19:46:33.587Z,101608.56
2023-02-28T19:48:44.919Z,101616.72
2023-02-28T19:50:52.973Z,101618.29
2023-02-28T19:53:09.800Z,101627.53
2023-02-28T19:55:20.372Z,101628.89
2023-02-28T19:57:29.474Z,101627.48
2023-02-28T19:59:41.854Z,101628.09
2023-02-28T20:04:19.895Z,101634.45
2023-02-28T20:06:30.393Z,101639.9
2023-02-28T20:08:39.353Z,101648.73
2023-02-28T20:10:49.133Z,101647.73
2023-02-28T20:13:03.069Z,101649.97
2023-02-28T20:15:12.514Z,101642.11
2023-02-28T20:17:21.443Z,101637.66
2023-02-28T20:19:32.360Z,101641.25
2023-02-28T20:21:41.587Z,101634.83
2023-02-28T20:23:51.171Z,101623.1
2023-02-28T20:26:01.103Z,101627.61
2023-02-28T20:28:11.816Z,101635.13
2023-02-28T20:30:23.025Z,101633.31
2023-02-28T20:32:31.505Z,101632.78
2023-02-28T20:34:41.345Z,101629.56
2023-02-28T20:36:50.980Z,101636.61
2023-02-28T20:39:02.339Z,101629.55
2023-02-28T20:41:14.628Z,101628.8
2023-02-28T20:43:32.636Z,101620.03
2023-02-28T20:45:44.196Z,101616.26
2023-02-28T20:47:56.586Z,101616.2
2023-02-28T20:50:05.984Z,101614.35
2023-02-28T20:52:15.115Z,101622.61
2023-02-28T20:54:26.301Z,101624.11
2023-02-28T20:56:37.248Z,101626.2
2023-02-28T20:58:45.967Z,101627.28
2023-02-28T21:00:53.606Z,101623.42
2023-02-28T21:03:05.309Z,101627.13
2023-02-28T21:05:14.227Z,101618.78
2023-02-28T21:07:23.016Z,101612.58
2023-02-28T21:09:30.999Z,101605.72
2023-02-28T21:11:37.723Z,101605.17
2023-02-28T21:13:46.957Z,101607.01
2023-02-28T21:15:55.166Z,101613.69
2023-02-28T21:18:02.028Z,101612.52
2023-02-28T21:20:09.382Z,101609.81
2023-02-28T21:22:15.943Z,101608.91
2023-02-28T21:24:22.915Z,101615.39
2023-02-28T21:26:30.358Z,101618.45
2023-02-28T21:28:37.499Z,101622.09
2023-02-28T21:30:46.330Z,101619.89
2023-02-28T21:32:52.999Z,101623.63
2023-02-28T21:34:59.715Z,101626.97
2023-02-28T21:37:08.681Z,101625.01
2023-02-28T21:39:14.538Z,101623.78
2023-02-28T21:41:21.115Z,101617.49
2023-02-28T21:43:26.925Z,101618.34
2023-02-28T21:45:32.703Z,101617.86
2023-02-28T21:47:38.251Z,101619.8
2023-02-28T21:49:43.964Z,101622.03
2023-02-28T21:51:49.550Z,101620.41
2023-02-28T21:53:54.929Z,101620
2023-02-28T21:56:00.739Z,101618.15
2023-02-28T21:58:06.016Z,101615.48
2023-02-28T22:00:11.768Z,101616.05
2023-02-28T22:02:17.145Z,101619.86
2023-02-28T22:04:23.033Z,101614.35
2023-02-28T22:06:28.621Z,101611.61
2023-02-28T22:08:35.471Z,101610.98
2023-02-28T22:10:40.903Z,101612.95
2023-02-28T22:12:46.446Z,101609.7
2023-02-28T22:14:51.802Z,101612.44
2023-02-28T22:16:58.821Z,101610.41
2023-02-28T22:19:05.667Z,101617.84
2023-02-28T22:21:10.883Z,101623.28
2023-02-28T22:23:16.396Z,101623.19
2023-02-28T22:25:21.730Z,101621.52
2023-02-28T22:27:27.402Z,101620.67
2023-02-28T22:29:32.993Z,101622.36
2023-02-28T22:31:38.567Z,101623.44
2023-02-28T22:33:44.211Z,101624.56
2023-02-28T22:35:49.644Z,101623.28
2023-02-28T22:37:55.489Z,101623.16
2023-02-28T22:40:00.963Z,101625.34
2023-02-28T22:42:06.415Z,101622.19
2023-02-28T22:44:11.478Z,101621.52
2023-02-28T22:46:16.731Z,101616.83
2023-02-28T22:48:22.343Z,101614.52
2023-02-28T22:50:27.703Z,101620.3
2023-02-28T22:52:32.810Z,101615.3
2023-02-28T22:54:38.128Z,101620.02
2023-02-28T22:56:43.826Z,101618.73
2023-02-28T22:58:49.076Z,101616.23
2023-02-28T23:00:54.870Z,101614.45
2023-02-28T23:05:34.966Z,101614.81
2023-02-28T23:07:40.353Z,101615.86
2023-02-28T23:09:45.663Z,101610.09
2023-02-28T23:11:51.204Z,101610.91
2023-02-28T23:13:56.808Z,101612.02
2023-02-28T23:16:02.454Z,101611.81
2023-02-28T23:18:08.169Z,101613.25
2023-02-28T23:20:13.619Z,101611
2023-02-28T23:22:19.691Z,101612.03
2023-02-28T23:24:24.803Z,101612.02
2023-02-28T23:26:31.594Z,101615.66
2023-02-28T23:28:37.866Z,101614.93
2023-02-28T23:30:43.056Z,101617.88
2023-02-28T23:32:48.685Z,101613.98
2023-02-28T23:34:54.428Z,101616.98
2023-02-28T23:36:59.936Z,101621.72
2023-02-28T23:39:05.314Z,101624.78
2023-02-28T23:41:10.896Z,101625.11
2023-02-28T23:43:16.715Z,101623.77
2023-02-28T23:45:22.341Z,101627.38
2023-02-28T23:47:27.813Z,101625.16
2023-02-28T23:49:33.126Z,101623.89
2023-02-28T23:51:38.594Z,101615.5
2023-02-28T23:53:43.810Z,101613.81
2023-02-28T23:55:49.275Z,101612.3
2023-02-28T23:57:54.766Z,101615.08
